Hlavní strana
METAR-TAF:

METAR-TAF

Letiště :

Damašek, Sýrie

zeměpisná šířka: 33-25N, zeměpisná délka: 036-31E, výška: 608 m

Aktuální stav počasí

Zpráva byla vytvořena před 19 minutami, v 09:00 UTC
Západojihozápadní vítr 5 kt
Teplota 9°C
Vlhkost vzduchu 93%
Tlak 1020 hPa
Viditelnost: 2000 m
Polojasno ve výšce 2000 ft
kouřmo

METAR: OSDI 100900Z 25005KT 2000 BR SCT020 09/08 Q1020

Čas: 11:19 (09:19 UTC)

Předpověď počasí

Předpověď platná od 10 v 06 UTC do 11 v 12 UTC
vítr z různých směrů 3 kt
Viditelnost: 0500 m
mlha
Změna
od 10 v 07 UTC do 10 v 09 UTC
Jihojihozápadní vítr 8 kt
Viditelnost: 3000 m
kouřmo
Změna
od 10 v 10 UTC do 10 v 12 UTC
Západní vítr 12 kt
Viditelnost: 6000 m
Polojasno ve výšce 3000 ft
Oblačno až skoro zataženo ve výšce 10000 ft

TAF: OSDI 1006/1112 VRB03KT 0500 FG BECMG 1007/1009 21008KT 3000 BR BECMG 1010/1012 26012KT 6000 SCT030 BKN100

Stav a předpovědi počasí z více než 4 000 letišť (zprávy METAR a TAF).

Červené a žluté tečky na mapě představují dostupné meteorologické stanice.

Když kurzor umístíte na tečku, zobrazí se název stanice.

Pak kliknutím zobrazíte stav a předpověď počasí.

Chcete-li změnit mapu, kliknutím na zelené tlačítko se znaménkem +mapu přiblížíte, kliknutím na zelené tlačítko se znaménkem – mapu oddálíte a kliknutím na zelené šipky přejdete na sousední mapy.


METAR-TAF: